createdAt,value
2018-11-01T00:00:01.300Z,6.57
2018-11-01T00:02:30.342Z,8.10
2018-11-01T00:04:59.489Z,8.33
2018-11-01T00:07:28.528Z,7.63
2018-11-01T00:09:57.533Z,9.50
2018-11-01T00:12:26.587Z,9.20
2018-11-01T00:14:55.596Z,11.30
2018-11-01T00:17:24.651Z,11.87
2018-11-01T00:19:53.848Z,13.80
2018-11-01T00:22:22.860Z,8.33
2018-11-01T00:24:51.919Z,9.73
2018-11-01T00:27:20.984Z,10.33
2018-11-01T00:29:50.009Z,9.70
2018-11-01T00:32:19.219Z,10.03
2018-11-01T00:34:48.371Z,14.77
2018-11-01T00:37:17.383Z,7.77
2018-11-01T00:39:46.569Z,7.70
2018-11-01T00:42:15.586Z,6.83
2018-11-01T00:44:44.636Z,9.90
2018-11-01T00:47:13.672Z,9.80
2018-11-01T00:49:42.939Z,7.10
2018-11-01T00:52:11.919Z,12.90
2018-11-01T00:54:42.376Z,8.53
2018-11-01T00:57:11.590Z,8.57
2018-11-01T00:59:40.989Z,9.93
2018-11-01T01:02:10.023Z,9.97
2018-11-01T01:04:39.056Z,7.30
2018-11-01T01:07:08.278Z,9.70
2018-11-01T01:09:37.442Z,14.00
2018-11-01T01:12:06.880Z,8.53
2018-11-01T01:14:37.273Z,10.27
2018-11-01T01:17:06.355Z,8.73
2018-11-01T01:19:35.339Z,9.37
2018-11-01T01:22:05.023Z,13.20
2018-11-01T01:24:34.031Z,8.30
2018-11-01T01:27:03.100Z,8.03
2018-11-01T01:29:32.182Z,9.93
2018-11-01T01:32:01.463Z,8.10
2018-11-01T01:34:30.522Z,8.73
2018-11-01T01:36:59.594Z,9.90
2018-11-01T01:39:28.640Z,10.60
2018-11-01T01:41:57.652Z,9.10
2018-11-01T01:44:26.672Z,10.13
2018-11-01T01:46:55.671Z,7.80
2018-11-01T01:49:24.685Z,13.80
2018-11-01T01:51:53.744Z,12.00
2018-11-01T01:54:22.786Z,9.90
2018-11-01T01:56:51.803Z,13.43
2018-11-01T01:59:20.941Z,10.10
2018-11-01T02:01:49.984Z,11.20
2018-11-01T02:04:19.018Z,9.13
2018-11-01T02:06:48.046Z,8.60
2018-11-01T02:09:17.067Z,10.40
2018-11-01T02:11:46.503Z,9.13
2018-11-01T02:14:15.511Z,9.20
2018-11-01T02:16:44.600Z,12.00
2018-11-01T02:19:13.569Z,10.30
2018-11-01T02:21:42.659Z,9.70
2018-11-01T02:24:12.083Z,7.70
2018-11-01T02:26:41.128Z,8.50
2018-11-01T02:29:10.212Z,15.80
2018-11-01T02:31:39.241Z,8.97
2018-11-01T02:34:08.247Z,10.23
2018-11-01T02:36:37.291Z,10.97
2018-11-01T02:39:08.985Z,9.80
2018-11-01T02:41:38.069Z,10.37
2018-11-01T02:44:07.154Z,8.43
2018-11-01T02:46:36.199Z,8.23
2018-11-01T02:49:05.987Z,7.90
2018-11-01T02:51:35.024Z,11.90
2018-11-01T02:54:04.105Z,13.73
2018-11-01T02:56:33.155Z,7.83
2018-11-01T02:59:02.179Z,8.50
2018-11-01T03:01:32.279Z,9.97
2018-11-01T03:04:01.415Z,9.80
2018-11-01T03:06:30.465Z,11.10
2018-11-01T03:08:59.500Z,10.87
2018-11-01T03:11:29.155Z,11.90
2018-11-01T03:13:58.172Z,10.63
2018-11-01T03:16:28.211Z,10.10
2018-11-01T03:18:57.271Z,9.77
2018-11-01T03:21:26.445Z,9.40
2018-11-01T03:23:55.652Z,11.33
2018-11-01T03:26:24.741Z,8.90
2018-11-01T03:28:53.855Z,9.20
2018-11-01T03:31:22.849Z,8.30
2018-11-01T03:33:51.803Z,9.97
2018-11-01T03:36:20.817Z,7.90
2018-11-01T03:38:49.983Z,11.50
2018-11-01T03:41:19.229Z,10.60
2018-11-01T03:43:48.236Z,9.10
2018-11-01T03:46:17.271Z,11.40
2018-11-01T03:48:46.360Z,8.20
2018-11-01T03:51:15.400Z,14.43
2018-11-01T03:53:44.562Z,13.90
2018-11-01T03:56:13.563Z,12.70
2018-11-01T03:58:42.576Z,11.10
2018-11-01T04:01:11.630Z,10.47
2018-11-01T04:03:40.851Z,10.70
2018-11-01T04:06:09.964Z,12.77
2018-11-01T04:08:38.990Z,11.20
2018-11-01T04:11:08.048Z,10.53
2018-11-01T04:13:37.172Z,9.80
2018-11-01T04:16:06.228Z,7.97
2018-11-01T04:18:35.244Z,10.70
2018-11-01T04:21:04.551Z,8.80
2018-11-01T04:23:33.604Z,9.23
2018-11-01T04:26:02.608Z,12.37
2018-11-01T04:28:31.787Z,12.47
2018-11-01T04:31:00.895Z,11.90
2018-11-01T04:33:29.964Z,11.40
2018-11-01T04:35:58.960Z,9.93
2018-11-01T04:38:27.962Z,11.30
2018-11-01T04:40:57.015Z,15.43
2018-11-01T04:43:26.376Z,19.30
2018-11-01T04:45:55.808Z,10.90
2018-11-01T04:48:24.830Z,10.30
2018-11-01T04:50:53.892Z,12.10
2018-11-01T04:53:22.936Z,9.47
2018-11-01T04:55:53.277Z,10.90
2018-11-01T04:58:22.448Z,12.30
2018-11-01T05:00:54.304Z,11.53
2018-11-01T05:03:23.683Z,10.60
2018-11-01T05:05:52.899Z,11.67
2018-11-01T05:08:22.613Z,9.73
2018-11-01T05:10:52.150Z,13.47
2018-11-01T05:13:21.323Z,11.87
2018-11-01T05:15:50.393Z,12.83
2018-11-01T05:18:19.449Z,13.63
2018-11-01T05:20:48.439Z,13.07
2018-11-01T05:23:17.555Z,11.83
2018-11-01T05:25:46.658Z,10.03
2018-11-01T05:28:15.696Z,9.73
2018-11-01T05:30:44.728Z,10.20
2018-11-01T05:33:13.759Z,13.70
2018-11-01T05:35:42.789Z,9.40
2018-11-01T05:38:11.877Z,12.13
2018-11-01T05:40:40.970Z,9.73
2018-11-01T05:43:14.051Z,9.97
2018-11-01T05:45:43.100Z,13.83
2018-11-01T05:48:12.248Z,11.70
2018-11-01T05:50:41.292Z,12.00
2018-11-01T05:53:10.326Z,10.43
2018-11-01T05:55:39.330Z,11.40
2018-11-01T05:58:08.377Z,12.73
2018-11-01T06:00:37.391Z,9.70
2018-11-01T06:03:06.404Z,8.40
2018-11-01T06:05:36.066Z,7.83
2018-11-01T06:08:07.799Z,8.23
2018-11-01T06:10:36.835Z,10.80
2018-11-01T06:13:05.961Z,16.97
2018-11-01T06:15:34.975Z,11.00
2018-11-01T06:18:04.040Z,8.73
2018-11-01T06:20:33.054Z,9.47
2018-11-01T06:23:03.782Z,8.07
2018-11-01T06:25:33.484Z,12.07
2018-11-01T06:28:02.520Z,6.93
2018-11-01T06:30:31.639Z,7.47
2018-11-01T06:33:00.669Z,8.87
2018-11-01T06:35:33.409Z,13.83
2018-11-01T06:38:02.507Z,9.57
2018-11-01T06:40:31.507Z,14.20
2018-11-01T06:43:00.532Z,9.83
2018-11-01T06:45:29.598Z,11.17
2018-11-01T06:47:58.648Z,10.20
2018-11-01T06:50:27.710Z,13.37
2018-11-01T06:52:56.783Z,9.57
2018-11-01T06:55:25.855Z,10.77
2018-11-01T06:57:54.990Z,9.10
2018-11-01T07:00:24.183Z,11.30
2018-11-01T07:02:53.414Z,8.17
2018-11-01T07:05:22.789Z,8.70
2018-11-01T07:07:51.807Z,9.03
2018-11-01T07:10:20.836Z,14.97
2018-11-01T07:12:49.915Z,9.93
2018-11-01T07:15:18.960Z,10.37
2018-11-01T07:17:48.437Z,8.23
2018-11-01T07:20:17.766Z,10.77
2018-11-01T07:22:46.864Z,9.93
2018-11-01T07:25:17.153Z,9.30
2018-11-01T07:27:46.174Z,10.17
2018-11-01T07:30:16.549Z,8.60
2018-11-01T07:32:45.690Z,8.60
2018-11-01T07:35:15.148Z,12.27
2018-11-01T07:37:45.074Z,7.60
2018-11-01T07:40:17.381Z,8.73
2018-11-01T07:42:46.844Z,14.97
2018-11-01T07:45:16.075Z,13.77
2018-11-01T07:47:45.502Z,8.73
2018-11-01T07:50:15.649Z,6.70
2018-11-01T07:52:44.733Z,12.60
2018-11-01T07:55:15.589Z,9.20
2018-11-01T07:57:44.707Z,19.33
2018-11-01T08:00:15.212Z,9.03
2018-11-01T08:02:45.403Z,9.20
2018-11-01T08:05:14.681Z,10.07
2018-11-01T08:07:43.770Z,8.93
2018-11-01T08:10:15.791Z,10.63
2018-11-01T08:12:45.470Z,13.40
2018-11-01T08:15:18.099Z,11.80
2018-11-01T08:17:47.144Z,10.70
2018-11-01T08:20:17.822Z,16.73
2018-11-01T08:22:46.697Z,12.13
2018-11-01T08:25:15.947Z,11.50
2018-11-01T08:27:45.346Z,11.43
2018-11-01T08:30:15.848Z,8.57
2018-11-01T08:32:45.231Z,12.13
2018-11-01T08:35:14.399Z,10.57
2018-11-01T08:37:44.619Z,13.73
2018-11-01T08:40:13.998Z,15.03
2018-11-01T08:42:43.430Z,13.37
2018-11-01T08:45:13.687Z,12.23
2018-11-01T08:47:42.785Z,15.80
2018-11-01T08:50:13.060Z,18.70
2018-11-01T08:52:42.892Z,12.27
2018-11-01T08:55:12.263Z,12.40
2018-11-01T08:57:42.745Z,15.80
2018-11-01T09:00:12.479Z,11.77
2018-11-01T09:02:42.308Z,19.10
2018-11-01T09:05:12.130Z,15.20
2018-11-01T09:07:41.488Z,17.63
2018-11-01T09:10:12.391Z,11.87
2018-11-01T09:12:41.729Z,12.83
2018-11-01T09:15:12.084Z,15.07
2018-11-01T09:17:41.442Z,12.50
2018-11-01T09:20:11.103Z,11.57
2018-11-01T09:22:41.941Z,15.07
2018-11-01T09:25:10.987Z,16.00
2018-11-01T09:27:40.041Z,11.30
2018-11-01T09:30:11.135Z,12.43
2018-11-01T09:32:40.690Z,10.80
2018-11-01T09:35:10.487Z,10.53
2018-11-01T09:37:40.552Z,11.60
2018-11-01T09:40:11.261Z,18.70
2018-11-01T09:42:40.578Z,15.13
2018-11-01T09:45:09.755Z,13.40
2018-11-01T09:47:39.343Z,20.20
2018-11-01T09:50:09.549Z,14.87
2018-11-01T09:52:38.832Z,16.43
2018-11-01T09:55:08.091Z,11.80
2018-11-01T09:57:37.239Z,16.53
2018-11-01T10:00:08.810Z,10.50
2018-11-01T10:02:37.849Z,13.80
2018-11-01T10:05:08.021Z,11.70
2018-11-01T10:07:37.405Z,13.13
2018-11-01T10:10:08.025Z,13.80
2018-11-01T10:12:37.277Z,15.33
2018-11-01T10:15:06.877Z,11.97
2018-11-01T10:17:36.266Z,14.57
2018-11-01T10:20:07.500Z,10.00
2018-11-01T10:22:36.696Z,13.00
2018-11-01T10:25:06.720Z,11.03
2018-11-01T10:27:37.979Z,13.10
2018-11-01T10:32:58.498Z,12.17
2018-11-01T10:35:27.533Z,9.67
2018-11-01T10:37:56.568Z,13.13
2018-11-01T10:40:25.765Z,11.60
2018-11-01T10:42:54.800Z,15.73
2018-11-01T10:45:23.894Z,10.67
2018-11-01T10:47:52.930Z,13.50
2018-11-01T10:50:21.892Z,9.77
2018-11-01T10:52:50.891Z,8.60
2018-11-01T10:55:19.887Z,10.60
2018-11-01T10:57:49.158Z,10.23
2018-11-01T11:00:23.852Z,14.60
2018-11-01T11:02:53.258Z,13.20
2018-11-01T11:05:22.886Z,10.13
2018-11-01T11:07:52.004Z,8.77
2018-11-01T11:10:21.154Z,15.73
2018-11-01T11:12:50.467Z,11.60
2018-11-01T11:15:19.755Z,13.27
2018-11-01T11:17:48.806Z,10.20
2018-11-01T11:20:17.981Z,13.00
2018-11-01T11:22:46.868Z,24.83
2018-11-01T11:25:16.133Z,11.80
2018-11-01T11:27:45.231Z,9.90
2018-11-01T11:30:14.366Z,12.73
2018-11-01T11:32:43.294Z,8.53
2018-11-01T11:35:12.524Z,12.20
2018-11-01T11:37:41.793Z,12.33
2018-11-01T11:40:11.821Z,11.97
2018-11-01T11:42:40.965Z,13.17
2018-11-01T11:45:11.241Z,13.80
2018-11-01T11:47:40.640Z,12.73
2018-11-01T11:50:10.671Z,10.60
2018-11-01T11:52:39.899Z,13.27
2018-11-01T11:55:09.485Z,14.83
2018-11-01T11:57:38.768Z,14.13
2018-11-01T12:00:09.919Z,13.83
2018-11-01T12:02:38.956Z,18.13
2018-11-01T12:05:08.322Z,13.63
2018-11-01T12:07:37.602Z,18.27
2018-11-01T12:10:08.027Z,16.43
2018-11-01T12:12:37.069Z,12.73
2018-11-01T12:15:06.744Z,13.90
2018-11-01T12:17:36.029Z,11.17
2018-11-01T12:20:06.463Z,15.60
2018-11-01T12:22:35.464Z,13.17
2018-11-01T12:25:04.492Z,12.10
2018-11-01T12:27:33.469Z,13.80
2018-11-01T12:30:02.480Z,13.53
2018-11-01T12:32:31.495Z,14.80
2018-11-01T12:35:00.555Z,11.87
2018-11-01T12:37:29.519Z,8.93
2018-11-01T12:39:58.515Z,11.47
2018-11-01T12:42:27.575Z,11.47
2018-11-01T12:44:56.581Z,9.97
2018-11-01T12:47:25.699Z,11.43
2018-11-01T12:49:54.821Z,11.40
2018-11-01T12:52:23.705Z,10.43
2018-11-01T12:54:52.780Z,10.03
2018-11-01T12:57:21.745Z,13.30
2018-11-01T12:59:50.871Z,11.10
2018-11-01T13:02:19.899Z,15.80
2018-11-01T13:04:48.903Z,12.53
2018-11-01T13:07:17.907Z,15.00
2018-11-01T13:09:46.954Z,13.77
2018-11-01T13:12:15.976Z,14.97
2018-11-01T13:14:44.974Z,20.03
2018-11-01T13:17:13.993Z,16.30
2018-11-01T13:19:43.169Z,16.30
2018-11-01T13:22:12.257Z,17.67
2018-11-01T13:24:41.280Z,14.10
2018-11-01T13:27:10.300Z,13.07
2018-11-01T13:29:39.270Z,12.47
2018-11-01T13:32:08.263Z,14.37
2018-11-01T13:34:37.336Z,12.10
2018-11-01T13:37:06.309Z,13.03
2018-11-01T13:39:35.553Z,13.27
2018-11-01T13:42:04.495Z,14.47
2018-11-01T13:44:33.546Z,15.47
2018-11-01T13:47:02.634Z,21.70
2018-11-01T13:49:31.641Z,30.67
2018-11-01T13:52:00.640Z,24.80
2018-11-01T13:54:29.638Z,15.53
2018-11-01T13:56:58.724Z,11.03
2018-11-01T13:59:27.716Z,11.53
2018-11-01T14:01:57.055Z,12.70
2018-11-01T14:04:26.091Z,15.53
2018-11-01T14:06:55.148Z,13.60
2018-11-01T14:09:26.249Z,9.13
2018-11-01T14:11:55.587Z,11.97
2018-11-01T14:14:25.053Z,13.10
2018-11-01T14:16:53.921Z,9.70
2018-11-01T14:19:22.935Z,13.30
2018-11-01T14:21:51.951Z,13.67
2018-11-01T14:24:20.971Z,11.37
2018-11-01T14:26:49.976Z,9.10
2018-11-01T14:29:18.974Z,10.87
2018-11-01T14:31:48.020Z,14.50
2018-11-01T14:34:17.058Z,13.80
2018-11-01T14:36:46.223Z,23.03
2018-11-01T14:39:15.311Z,14.00
2018-11-01T14:41:44.293Z,19.73
2018-11-01T14:44:13.295Z,15.00
2018-11-01T14:46:42.271Z,18.23
2018-11-01T14:49:11.287Z,19.20
2018-11-01T14:51:40.343Z,26.77
2018-11-01T14:54:10.074Z,26.80
2018-11-01T14:56:40.189Z,20.70
2018-11-01T14:59:09.638Z,19.87
2018-11-01T15:01:37.064Z,27.63
2018-11-01T15:04:06.093Z,28.87
2018-11-01T15:06:35.275Z,21.03
2018-11-01T15:09:06.482Z,21.53
2018-11-01T15:11:35.613Z,23.97
2018-11-01T15:14:04.642Z,23.77
2018-11-01T15:16:33.692Z,23.80
2018-11-01T15:19:02.838Z,21.53
2018-11-01T15:21:32.120Z,17.10
2018-11-01T15:24:01.349Z,20.33
2018-11-01T15:26:30.420Z,20.10
2018-11-01T15:28:59.491Z,20.93
2018-11-01T15:31:28.577Z,16.50
2018-11-01T15:33:57.666Z,19.20
2018-11-01T15:36:27.632Z,26.17
2018-11-01T15:38:56.632Z,20.87
2018-11-01T15:41:25.821Z,19.30
2018-11-01T15:43:54.843Z,18.13
2018-11-01T15:46:23.913Z,18.90
2018-11-01T15:48:52.943Z,19.00
2018-11-01T15:51:21.960Z,14.90
2018-11-01T15:53:51.033Z,21.23
2018-11-01T15:56:20.106Z,21.57
2018-11-01T15:58:49.139Z,26.20
2018-11-01T16:01:18.167Z,19.00
2018-11-01T16:03:47.228Z,20.30
2018-11-01T16:06:16.250Z,17.13
2018-11-01T16:08:45.355Z,18.83
2018-11-01T16:11:14.806Z,20.27
2018-11-01T16:13:43.992Z,23.00
2018-11-01T16:16:13.064Z,20.37
2018-11-01T16:18:42.190Z,17.90
2018-11-01T16:21:11.301Z,29.50
2018-11-01T16:23:40.408Z,17.70
2018-11-01T16:26:09.554Z,16.57
2018-11-01T16:28:38.595Z,24.00
2018-11-01T16:31:07.756Z,20.40
2018-11-01T16:33:36.837Z,19.17
2018-11-01T16:36:06.065Z,22.70
2018-11-01T16:38:35.168Z,22.70
2018-11-01T16:41:06.392Z,20.73
2018-11-01T16:43:35.476Z,27.20
2018-11-01T16:46:04.767Z,18.67
2018-11-01T16:48:33.766Z,18.07
2018-11-01T16:51:02.886Z,20.03
2018-11-01T16:53:31.819Z,15.70
2018-11-01T16:56:00.912Z,19.40
2018-11-01T16:58:29.906Z,19.40
2018-11-01T17:00:58.971Z,24.00
2018-11-01T17:03:27.981Z,20.30
2018-11-01T17:05:57.229Z,20.27
2018-11-01T17:08:28.652Z,19.00
2018-11-01T17:10:58.751Z,16.60
2018-11-01T17:13:27.829Z,16.47
2018-11-01T17:15:57.052Z,17.27
2018-11-01T17:18:26.108Z,18.30
2018-11-01T17:20:55.183Z,17.47
2018-11-01T17:23:24.260Z,22.10
2018-11-01T17:25:53.311Z,26.33
2018-11-01T17:28:22.434Z,29.90
2018-11-01T17:30:51.485Z,20.70
2018-11-01T17:33:20.544Z,20.23
2018-11-01T17:35:49.642Z,23.27
2018-11-01T17:38:18.945Z,19.17
2018-11-01T17:40:48.067Z,17.10
2018-11-01T17:43:17.538Z,19.80
2018-11-01T17:45:46.640Z,24.17
2018-11-01T17:48:15.687Z,21.60
2018-11-01T17:50:45.860Z,23.03
2018-11-01T17:53:14.995Z,26.23
2018-11-01T17:55:44.073Z,18.93
2018-11-01T17:58:13.141Z,22.40
2018-11-01T18:00:42.224Z,24.00
2018-11-01T18:03:11.536Z,20.63
2018-11-01T18:05:40.562Z,16.47
2018-11-01T18:08:09.727Z,18.23
2018-11-01T18:10:38.844Z,17.47
2018-11-01T18:13:07.956Z,18.17
2018-11-01T18:15:37.061Z,16.93
2018-11-01T18:18:06.204Z,20.60
2018-11-01T18:20:35.229Z,26.20
2018-11-01T18:23:04.440Z,25.23
2018-11-01T18:25:37.715Z,17.13
2018-11-01T18:28:06.825Z,20.70
2018-11-01T18:30:35.904Z,18.80
2018-11-01T18:33:05.582Z,18.27
2018-11-01T18:35:34.460Z,20.60
2018-11-01T18:38:03.624Z,19.53
2018-11-01T18:40:32.827Z,27.90
2018-11-01T18:43:02.044Z,19.70
2018-11-01T18:45:31.181Z,23.47
2018-11-01T18:48:00.306Z,22.40
2018-11-01T18:50:29.396Z,21.07
2018-11-01T18:52:58.744Z,36.23
2018-11-01T18:55:27.775Z,25.40
2018-11-01T18:57:56.822Z,24.93
2018-11-01T19:00:26.129Z,23.30
2018-11-01T19:02:55.437Z,26.90
2018-11-01T19:05:24.521Z,21.73
2018-11-01T19:07:53.564Z,20.10
2018-11-01T19:10:22.704Z,25.30
2018-11-01T19:12:51.731Z,27.23
2018-11-01T19:15:20.815Z,20.27
2018-11-01T19:17:49.882Z,25.17
2018-11-01T19:20:18.970Z,23.40
2018-11-01T19:22:48.012Z,24.10
2018-11-01T19:25:17.078Z,22.20
2018-11-01T19:27:46.195Z,31.63
2018-11-01T19:30:15.364Z,22.10
2018-11-01T19:32:44.476Z,21.63
2018-11-01T19:35:13.991Z,23.00
2018-11-01T19:37:43.151Z,24.97
2018-11-01T19:40:14.585Z,20.70
2018-11-01T19:42:45.888Z,22.40
2018-11-01T19:45:14.928Z,22.90
2018-11-01T19:47:44.054Z,25.70
2018-11-01T19:50:14.433Z,21.77
2018-11-01T19:52:43.573Z,19.40
2018-11-01T19:55:12.977Z,18.67
2018-11-01T19:57:42.507Z,19.30
2018-11-01T20:00:13.788Z,25.67
2018-11-01T20:02:43.043Z,23.57
2018-11-01T20:05:12.089Z,25.80
2018-11-01T20:07:41.169Z,20.50
2018-11-01T20:10:11.598Z,16.70
2018-11-01T20:12:40.648Z,18.83
2018-11-01T20:15:09.752Z,23.60
2018-11-01T20:17:38.808Z,26.10
2018-11-01T20:20:09.831Z,22.83
2018-11-01T20:22:40.220Z,21.80
2018-11-01T20:25:09.301Z,24.23
2018-11-01T20:27:38.703Z,20.80
2018-11-01T20:30:09.840Z,20.70
2018-11-01T20:32:39.247Z,21.27
2018-11-01T20:35:09.499Z,19.13
2018-11-01T20:37:38.543Z,16.90
2018-11-01T20:40:07.794Z,24.20
2018-11-01T20:42:36.911Z,20.37
2018-11-01T20:45:07.131Z,20.83
2018-11-01T20:47:36.274Z,22.13
2018-11-01T20:50:06.380Z,19.53
2018-11-01T20:52:35.512Z,16.80
2018-11-01T20:55:04.634Z,19.30
2018-11-01T20:57:33.760Z,18.13
2018-11-01T21:00:02.803Z,22.10
2018-11-01T21:02:31.847Z,17.67
2018-11-01T21:05:01.000Z,15.90
2018-11-01T21:07:29.932Z,24.77
2018-11-01T21:09:58.993Z,19.43
2018-11-01T21:12:28.049Z,20.07
2018-11-01T21:14:57.167Z,19.97
2018-11-01T21:17:26.228Z,18.57
2018-11-01T21:19:55.336Z,21.03
2018-11-01T21:22:24.367Z,17.33
2018-11-01T21:24:53.444Z,16.03
2018-11-01T21:27:22.507Z,17.57
2018-11-01T21:29:51.848Z,19.70
2018-11-01T21:32:21.095Z,18.77
2018-11-01T21:34:51.165Z,18.17
2018-11-01T21:37:20.228Z,19.90
2018-11-01T21:39:49.296Z,18.27
2018-11-01T21:42:18.311Z,18.30
2018-11-01T21:44:47.474Z,17.50
2018-11-01T21:47:16.516Z,15.00
2018-11-01T21:49:45.624Z,19.93
2018-11-01T21:52:14.698Z,22.17
2018-11-01T21:54:43.908Z,16.37
2018-11-01T21:57:12.956Z,17.40
2018-11-01T21:59:42.010Z,15.00
2018-11-01T22:02:11.355Z,20.00
2018-11-01T22:04:40.372Z,21.67
2018-11-01T22:07:09.498Z,22.07
2018-11-01T22:09:38.608Z,22.93
2018-11-01T22:12:09.480Z,20.87
2018-11-01T22:14:38.677Z,26.70
2018-11-01T22:17:07.789Z,19.30
2018-11-01T22:19:36.902Z,20.83
2018-11-01T22:22:07.024Z,22.83
2018-11-01T22:24:36.271Z,22.43
2018-11-01T22:27:05.388Z,24.30
2018-11-01T22:29:34.433Z,22.03
2018-11-01T22:32:04.656Z,21.00
2018-11-01T22:34:33.959Z,24.03
2018-11-01T22:37:03.316Z,21.33
2018-11-01T22:39:32.385Z,19.77
2018-11-01T22:42:01.495Z,20.23
2018-11-01T22:44:30.546Z,20.03
2018-11-01T22:47:00.685Z,18.83
2018-11-01T22:49:29.761Z,19.17
2018-11-01T22:51:58.849Z,18.73
2018-11-01T22:54:27.872Z,22.33
2018-11-01T22:56:57.045Z,24.70
2018-11-01T22:59:26.112Z,19.57
2018-11-01T23:01:55.194Z,17.23
2018-11-01T23:04:24.231Z,18.80
2018-11-01T23:06:53.325Z,20.50
2018-11-01T23:09:22.462Z,18.13
2018-11-01T23:11:51.570Z,18.17
2018-11-01T23:14:20.674Z,17.50
2018-11-01T23:16:49.706Z,17.63
2018-11-01T23:19:19.001Z,21.77
2018-11-01T23:21:48.177Z,16.00
2018-11-01T23:24:17.320Z,18.97
2018-11-01T23:26:48.202Z,18.17
2018-11-01T23:29:17.252Z,17.13
2018-11-01T23:31:46.295Z,13.87
2018-11-01T23:34:15.336Z,14.77
2018-11-01T23:36:49.701Z,18.57
2018-11-01T23:39:25.230Z,15.90
2018-11-01T23:41:59.671Z,16.90
2018-11-01T23:44:34.109Z,14.17
2018-11-01T23:47:08.471Z,22.30
2018-11-01T23:49:41.324Z,16.07
2018-11-01T23:52:18.687Z,16.00
2018-11-01T23:54:47.769Z,11.40
2018-11-01T23:57:16.937Z,13.77
2018-11-01T23:59:45.959Z,10.43
